sensor_id;sensor_type;location;lat;lon;timestamp;P1;durP1;ratioP1;P2;durP2;ratioP2
20393;SDS011;10356;50.544;9.642;2022-08-27T00:00:41;19.73;;;16.23;;
20393;SDS011;10356;50.544;9.642;2022-08-27T00:03:10;18.85;;;16.23;;
20393;SDS011;10356;50.544;9.642;2022-08-27T00:05:36;18.15;;;16.25;;
20393;SDS011;10356;50.544;9.642;2022-08-27T00:08:03;19.05;;;15.77;;
20393;SDS011;10356;50.544;9.642;2022-08-27T00:10:30;21.48;;;15.45;;
20393;SDS011;10356;50.544;9.642;2022-08-27T00:12:57;17.05;;;15.30;;
20393;SDS011;10356;50.544;9.642;2022-08-27T00:15:24;19.63;;;16.88;;
20393;SDS011;10356;50.544;9.642;2022-08-27T00:17:51;22.20;;;16.10;;
20393;SDS011;10356;50.544;9.642;2022-08-27T00:20:19;21.20;;;16.88;;
20393;SDS011;10356;50.544;9.642;2022-08-27T00:22:49;19.73;;;16.73;;
20393;SDS011;10356;50.544;9.642;2022-08-27T00:25:15;21.33;;;16.45;;
20393;SDS011;10356;50.544;9.642;2022-08-27T00:27:43;17.73;;;15.73;;
20393;SDS011;10356;50.544;9.642;2022-08-27T00:30:11;24.85;;;16.30;;
20393;SDS011;10356;50.544;9.642;2022-08-27T00:32:40;18.67;;;14.95;;
20393;SDS011;10356;50.544;9.642;2022-08-27T00:35:07;18.35;;;15.48;;
20393;SDS011;10356;50.544;9.642;2022-08-27T00:37:36;18.27;;;14.98;;
20393;SDS011;10356;50.544;9.642;2022-08-27T00:40:03;20.98;;;16.40;;
20393;SDS011;10356;50.544;9.642;2022-08-27T00:42:31;18.58;;;15.02;;
20393;SDS011;10356;50.544;9.642;2022-08-27T00:44:58;20.20;;;14.60;;
20393;SDS011;10356;50.544;9.642;2022-08-27T00:47:26;21.13;;;15.20;;
20393;SDS011;10356;50.544;9.642;2022-08-27T00:49:55;20.42;;;15.52;;
20393;SDS011;10356;50.544;9.642;2022-08-27T00:52:26;17.05;;;13.73;;
20393;SDS011;10356;50.544;9.642;2022-08-27T00:54:57;19.90;;;14.20;;
20393;SDS011;10356;50.544;9.642;2022-08-27T00:57:28;21.20;;;14.57;;
20393;SDS011;10356;50.544;9.642;2022-08-27T00:59:55;21.08;;;14.50;;
20393;SDS011;10356;50.544;9.642;2022-08-27T01:02:22;21.02;;;14.65;;
20393;SDS011;10356;50.544;9.642;2022-08-27T01:04:54;22.63;;;14.50;;
20393;SDS011;10356;50.544;9.642;2022-08-27T01:07:24;16.98;;;14.23;;
20393;SDS011;10356;50.544;9.642;2022-08-27T01:09:52;18.40;;;13.98;;
20393;SDS011;10356;50.544;9.642;2022-08-27T01:12:24;21.30;;;13.85;;
20393;SDS011;10356;50.544;9.642;2022-08-27T01:14:51;14.75;;;12.93;;
20393;SDS011;10356;50.544;9.642;2022-08-27T01:17:18;16.92;;;13.60;;
20393;SDS011;10356;50.544;9.642;2022-08-27T01:19:45;15.95;;;13.00;;
20393;SDS011;10356;50.544;9.642;2022-08-27T01:22:17;16.92;;;13.07;;
20393;SDS011;10356;50.544;9.642;2022-08-27T01:24:55;20.55;;;13.40;;
20393;SDS011;10356;50.544;9.642;2022-08-27T01:27:24;18.60;;;13.30;;
20393;SDS011;10356;50.544;9.642;2022-08-27T01:29:52;17.90;;;13.30;;
20393;SDS011;10356;50.544;9.642;2022-08-27T01:32:20;16.67;;;12.93;;
20393;SDS011;10356;50.544;9.642;2022-08-27T01:34:50;18.80;;;13.95;;
20393;SDS011;10356;50.544;9.642;2022-08-27T01:37:17;19.30;;;12.98;;
20393;SDS011;10356;50.544;9.642;2022-08-27T01:39:45;16.15;;;12.90;;
20393;SDS011;10356;50.544;9.642;2022-08-27T01:42:16;15.43;;;12.68;;
20393;SDS011;10356;50.544;9.642;2022-08-27T01:44:47;18.83;;;12.88;;
20393;SDS011;10356;50.544;9.642;2022-08-27T01:47:17;16.17;;;12.88;;
20393;SDS011;10356;50.544;9.642;2022-08-27T01:49:45;18.60;;;12.85;;
20393;SDS011;10356;50.544;9.642;2022-08-27T01:52:12;15.90;;;13.95;;
20393;SDS011;10356;50.544;9.642;2022-08-27T01:54:40;18.75;;;14.02;;
20393;SDS011;10356;50.544;9.642;2022-08-27T01:57:07;15.55;;;13.88;;
20393;SDS011;10356;50.544;9.642;2022-08-27T01:59:35;18.60;;;14.27;;
20393;SDS011;10356;50.544;9.642;2022-08-27T02:02:02;19.48;;;14.50;;
20393;SDS011;10356;50.544;9.642;2022-08-27T02:04:30;14.85;;;13.43;;
20393;SDS011;10356;50.544;9.642;2022-08-27T02:06:57;15.23;;;13.50;;
20393;SDS011;10356;50.544;9.642;2022-08-27T02:09:24;19.95;;;14.38;;
20393;SDS011;10356;50.544;9.642;2022-08-27T02:11:51;17.65;;;14.20;;
20393;SDS011;10356;50.544;9.642;2022-08-27T02:14:18;15.15;;;13.32;;
20393;SDS011;10356;50.544;9.642;2022-08-27T02:16:46;20.52;;;14.55;;
20393;SDS011;10356;50.544;9.642;2022-08-27T02:19:14;18.63;;;14.38;;
20393;SDS011;10356;50.544;9.642;2022-08-27T02:21:41;18.35;;;13.43;;
20393;SDS011;10356;50.544;9.642;2022-08-27T02:24:08;18.25;;;13.77;;
20393;SDS011;10356;50.544;9.642;2022-08-27T02:26:35;20.17;;;13.68;;
20393;SDS011;10356;50.544;9.642;2022-08-27T02:29:02;16.88;;;13.93;;
20393;SDS011;10356;50.544;9.642;2022-08-27T02:31:29;18.90;;;13.43;;
20393;SDS011;10356;50.544;9.642;2022-08-27T02:33:57;20.27;;;13.82;;
20393;SDS011;10356;50.544;9.642;2022-08-27T02:36:24;17.17;;;14.65;;
20393;SDS011;10356;50.544;9.642;2022-08-27T02:38:50;18.38;;;13.75;;
20393;SDS011;10356;50.544;9.642;2022-08-27T02:41:17;19.42;;;14.80;;
20393;SDS011;10356;50.544;9.642;2022-08-27T02:43:44;18.08;;;14.57;;
20393;SDS011;10356;50.544;9.642;2022-08-27T02:46:10;18.50;;;14.98;;
20393;SDS011;10356;50.544;9.642;2022-08-27T02:48:38;17.13;;;14.02;;
20393;SDS011;10356;50.544;9.642;2022-08-27T02:51:07;16.40;;;14.23;;
20393;SDS011;10356;50.544;9.642;2022-08-27T02:53:34;16.80;;;14.48;;
20393;SDS011;10356;50.544;9.642;2022-08-27T02:56:01;19.45;;;14.52;;
20393;SDS011;10356;50.544;9.642;2022-08-27T02:58:29;18.38;;;14.90;;
20393;SDS011;10356;50.544;9.642;2022-08-27T03:00:57;17.05;;;14.35;;
20393;SDS011;10356;50.544;9.642;2022-08-27T03:03:25;16.67;;;14.50;;
20393;SDS011;10356;50.544;9.642;2022-08-27T03:05:52;18.20;;;14.23;;
20393;SDS011;10356;50.544;9.642;2022-08-27T03:08:19;20.95;;;14.68;;
20393;SDS011;10356;50.544;9.642;2022-08-27T03:10:47;19.60;;;13.68;;
20393;SDS011;10356;50.544;9.642;2022-08-27T03:13:14;17.75;;;14.38;;
20393;SDS011;10356;50.544;9.642;2022-08-27T03:15:41;18.40;;;14.13;;
20393;SDS011;10356;50.544;9.642;2022-08-27T03:18:07;21.50;;;15.25;;
20393;SDS011;10356;50.544;9.642;2022-08-27T03:20:44;18.45;;;14.52;;
20393;SDS011;10356;50.544;9.642;2022-08-27T03:23:13;15.88;;;13.77;;
20393;SDS011;10356;50.544;9.642;2022-08-27T03:25:46;17.55;;;14.40;;
20393;SDS011;10356;50.544;9.642;2022-08-27T03:28:15;20.73;;;14.18;;
20393;SDS011;10356;50.544;9.642;2022-08-27T03:30:42;17.20;;;13.80;;
20393;SDS011;10356;50.544;9.642;2022-08-27T03:33:10;20.60;;;15.05;;
20393;SDS011;10356;50.544;9.642;2022-08-27T03:35:37;16.75;;;13.38;;
20393;SDS011;10356;50.544;9.642;2022-08-27T03:38:04;22.17;;;14.63;;
20393;SDS011;10356;50.544;9.642;2022-08-27T03:40:31;16.30;;;14.43;;
20393;SDS011;10356;50.544;9.642;2022-08-27T03:42:59;18.58;;;14.02;;
20393;SDS011;10356;50.544;9.642;2022-08-27T03:45:25;19.50;;;13.82;;
20393;SDS011;10356;50.544;9.642;2022-08-27T03:47:52;19.42;;;14.23;;
20393;SDS011;10356;50.544;9.642;2022-08-27T03:50:18;21.60;;;14.07;;
20393;SDS011;10356;50.544;9.642;2022-08-27T03:52:45;21.30;;;14.30;;
20393;SDS011;10356;50.544;9.642;2022-08-27T03:55:12;21.92;;;13.13;;
20393;SDS011;10356;50.544;9.642;2022-08-27T03:57:39;17.90;;;14.23;;
20393;SDS011;10356;50.544;9.642;2022-08-27T04:00:08;18.00;;;13.70;;
20393;SDS011;10356;50.544;9.642;2022-08-27T04:02:36;17.20;;;14.68;;
20393;SDS011;10356;50.544;9.642;2022-08-27T04:05:03;18.48;;;13.57;;
20393;SDS011;10356;50.544;9.642;2022-08-27T04:07:31;21.05;;;14.20;;
20393;SDS011;10356;50.544;9.642;2022-08-27T04:09:58;19.17;;;13.45;;
20393;SDS011;10356;50.544;9.642;2022-08-27T04:12:24;16.98;;;13.43;;
20393;SDS011;10356;50.544;9.642;2022-08-27T04:14:51;18.55;;;12.70;;
20393;SDS011;10356;50.544;9.642;2022-08-27T04:17:19;17.38;;;11.90;;
20393;SDS011;10356;50.544;9.642;2022-08-27T04:19:46;17.23;;;11.95;;
20393;SDS011;10356;50.544;9.642;2022-08-27T04:22:12;19.25;;;11.85;;
20393;SDS011;10356;50.544;9.642;2022-08-27T04:24:40;23.27;;;13.05;;
20393;SDS011;10356;50.544;9.642;2022-08-27T04:27:06;15.48;;;12.90;;
20393;SDS011;10356;50.544;9.642;2022-08-27T04:29:35;16.88;;;11.40;;
20393;SDS011;10356;50.544;9.642;2022-08-27T04:32:02;13.88;;;11.20;;
20393;SDS011;10356;50.544;9.642;2022-08-27T04:34:30;15.95;;;11.88;;
20393;SDS011;10356;50.544;9.642;2022-08-27T04:36:57;17.17;;;12.02;;
20393;SDS011;10356;50.544;9.642;2022-08-27T04:39:25;14.57;;;11.30;;
20393;SDS011;10356;50.544;9.642;2022-08-27T04:41:53;17.42;;;11.23;;
20393;SDS011;10356;50.544;9.642;2022-08-27T04:44:21;14.25;;;10.80;;
20393;SDS011;10356;50.544;9.642;2022-08-27T04:46:48;13.73;;;10.93;;
20393;SDS011;10356;50.544;9.642;2022-08-27T04:49:19;14.57;;;10.48;;
20393;SDS011;10356;50.544;9.642;2022-08-27T04:51:47;15.15;;;10.38;;
20393;SDS011;10356;50.544;9.642;2022-08-27T04:54:13;12.65;;;9.23;;
20393;SDS011;10356;50.544;9.642;2022-08-27T04:56:40;15.35;;;9.82;;
20393;SDS011;10356;50.544;9.642;2022-08-27T04:59:08;16.00;;;9.90;;
20393;SDS011;10356;50.544;9.642;2022-08-27T05:01:35;14.20;;;9.77;;
20393;SDS011;10356;50.544;9.642;2022-08-27T05:04:03;17.42;;;10.23;;
20393;SDS011;10356;50.544;9.642;2022-08-27T05:06:29;13.70;;;10.15;;
20393;SDS011;10356;50.544;9.642;2022-08-27T05:08:58;14.35;;;10.88;;
20393;SDS011;10356;50.544;9.642;2022-08-27T05:11:25;13.50;;;11.27;;
20393;SDS011;10356;50.544;9.642;2022-08-27T05:13:56;13.68;;;10.60;;
20393;SDS011;10356;50.544;9.642;2022-08-27T05:16:24;12.57;;;11.18;;
20393;SDS011;10356;50.544;9.642;2022-08-27T05:18:50;13.55;;;10.35;;
20393;SDS011;10356;50.544;9.642;2022-08-27T05:21:18;15.23;;;10.75;;
20393;SDS011;10356;50.544;9.642;2022-08-27T05:23:48;16.17;;;10.70;;
20393;SDS011;10356;50.544;9.642;2022-08-27T05:26:17;15.20;;;10.80;;
20393;SDS011;10356;50.544;9.642;2022-08-27T05:28:44;18.55;;;11.63;;
20393;SDS011;10356;50.544;9.642;2022-08-27T05:31:11;14.23;;;9.52;;
20393;SDS011;10356;50.544;9.642;2022-08-27T05:33:39;13.10;;;10.43;;
20393;SDS011;10356;50.544;9.642;2022-08-27T05:36:07;15.68;;;10.32;;
20393;SDS011;10356;50.544;9.642;2022-08-27T05:38:40;18.42;;;11.13;;
20393;SDS011;10356;50.544;9.642;2022-08-27T05:41:08;15.07;;;10.38;;
20393;SDS011;10356;50.544;9.642;2022-08-27T05:43:37;17.88;;;11.10;;
20393;SDS011;10356;50.544;9.642;2022-08-27T05:46:06;14.70;;;9.82;;
20393;SDS011;10356;50.544;9.642;2022-08-27T05:48:36;14.82;;;9.98;;
20393;SDS011;10356;50.544;9.642;2022-08-27T05:51:07;12.77;;;8.77;;
20393;SDS011;10356;50.544;9.642;2022-08-27T05:53:35;14.32;;;10.48;;
20393;SDS011;10356;50.544;9.642;2022-08-27T05:56:02;16.15;;;10.98;;
20393;SDS011;10356;50.544;9.642;2022-08-27T05:58:29;16.17;;;10.13;;
20393;SDS011;10356;50.544;9.642;2022-08-27T06:01:14;16.35;;;11.52;;
20393;SDS011;10356;50.544;9.642;2022-08-27T06:03:42;15.57;;;10.93;;
20393;SDS011;10356;50.544;9.642;2022-08-27T06:06:10;16.27;;;10.90;;
20393;SDS011;10356;50.544;9.642;2022-08-27T06:08:38;15.48;;;10.52;;
20393;SDS011;10356;50.544;9.642;2022-08-27T06:11:05;14.27;;;10.32;;
20393;SDS011;10356;50.544;9.642;2022-08-27T06:13:33;20.58;;;10.45;;
20393;SDS011;10356;50.544;9.642;2022-08-27T06:16:00;15.90;;;10.75;;
20393;SDS011;10356;50.544;9.642;2022-08-27T06:18:28;17.23;;;10.65;;
20393;SDS011;10356;50.544;9.642;2022-08-27T06:20:55;19.20;;;10.07;;
20393;SDS011;10356;50.544;9.642;2022-08-27T06:23:21;12.90;;;9.73;;
20393;SDS011;10356;50.544;9.642;2022-08-27T06:25:49;15.35;;;10.45;;
20393;SDS011;10356;50.544;9.642;2022-08-27T06:28:15;18.02;;;10.50;;
20393;SDS011;10356;50.544;9.642;2022-08-27T06:30:42;15.90;;;10.10;;
20393;SDS011;10356;50.544;9.642;2022-08-27T06:33:08;15.00;;;10.05;;
20393;SDS011;10356;50.544;9.642;2022-08-27T06:35:36;14.85;;;10.63;;
20393;SDS011;10356;50.544;9.642;2022-08-27T06:38:03;19.95;;;10.55;;
20393;SDS011;10356;50.544;9.642;2022-08-27T06:40:29;15.40;;;10.10;;
20393;SDS011;10356;50.544;9.642;2022-08-27T06:42:56;17.30;;;9.93;;
20393;SDS011;10356;50.544;9.642;2022-08-27T06:45:22;15.43;;;9.65;;
20393;SDS011;10356;50.544;9.642;2022-08-27T06:47:49;16.65;;;10.25;;
20393;SDS011;10356;50.544;9.642;2022-08-27T06:50:15;14.52;;;9.90;;
20393;SDS011;10356;50.544;9.642;2022-08-27T06:52:45;17.40;;;10.35;;
20393;SDS011;10356;50.544;9.642;2022-08-27T06:55:12;15.05;;;10.15;;
20393;SDS011;10356;50.544;9.642;2022-08-27T06:57:38;16.95;;;10.30;;
20393;SDS011;10356;50.544;9.642;2022-08-27T07:00:05;15.38;;;10.30;;
20393;SDS011;10356;50.544;9.642;2022-08-27T07:02:33;14.45;;;9.82;;
20393;SDS011;10356;50.544;9.642;2022-08-27T07:05:00;16.58;;;9.63;;
20393;SDS011;10356;50.544;9.642;2022-08-27T07:07:26;13.73;;;8.98;;
20393;SDS011;10356;50.544;9.642;2022-08-27T07:09:54;12.88;;;8.48;;
20393;SDS011;10356;50.544;9.642;2022-08-27T07:12:21;14.85;;;9.43;;
20393;SDS011;10356;50.544;9.642;2022-08-27T07:14:49;11.68;;;9.07;;
20393;SDS011;10356;50.544;9.642;2022-08-27T07:17:16;14.15;;;8.95;;
20393;SDS011;10356;50.544;9.642;2022-08-27T07:19:43;12.60;;;8.45;;
20393;SDS011;10356;50.544;9.642;2022-08-27T07:22:10;14.20;;;9.00;;
20393;SDS011;10356;50.544;9.642;2022-08-27T07:24:37;13.40;;;8.43;;
20393;SDS011;10356;50.544;9.642;2022-08-27T07:27:05;8.55;;;7.45;;
20393;SDS011;10356;50.544;9.642;2022-08-27T07:29:32;9.73;;;8.20;;
20393;SDS011;10356;50.544;9.642;2022-08-27T07:31:59;10.77;;;7.55;;
20393;SDS011;10356;50.544;9.642;2022-08-27T07:34:26;11.82;;;8.00;;
20393;SDS011;10356;50.544;9.642;2022-08-27T07:36:52;7.55;;;6.35;;
20393;SDS011;10356;50.544;9.642;2022-08-27T07:39:19;9.65;;;7.25;;
20393;SDS011;10356;50.544;9.642;2022-08-27T07:41:46;8.38;;;7.05;;
20393;SDS011;10356;50.544;9.642;2022-08-27T07:44:31;9.68;;;7.10;;
20393;SDS011;10356;50.544;9.642;2022-08-27T07:46:58;10.93;;;7.38;;
20393;SDS011;10356;50.544;9.642;2022-08-27T07:49:26;9.02;;;7.70;;
20393;SDS011;10356;50.544;9.642;2022-08-27T07:51:53;8.68;;;7.00;;
20393;SDS011;10356;50.544;9.642;2022-08-27T07:54:20;10.23;;;6.45;;
20393;SDS011;10356;50.544;9.642;2022-08-27T07:56:48;9.45;;;7.80;;
20393;SDS011;10356;50.544;9.642;2022-08-27T07:59:14;11.63;;;7.88;;
20393;SDS011;10356;50.544;9.642;2022-08-27T08:01:42;11.77;;;6.75;;
20393;SDS011;10356;50.544;9.642;2022-08-27T08:04:10;10.35;;;7.95;;
20393;SDS011;10356;50.544;9.642;2022-08-27T08:06:37;13.15;;;7.90;;
20393;SDS011;10356;50.544;9.642;2022-08-27T08:09:03;14.10;;;7.97;;
20393;SDS011;10356;50.544;9.642;2022-08-27T08:11:30;12.40;;;8.68;;
20393;SDS011;10356;50.544;9.642;2022-08-27T08:13:57;12.48;;;8.40;;
20393;SDS011;10356;50.544;9.642;2022-08-27T08:16:25;11.90;;;8.25;;
20393;SDS011;10356;50.544;9.642;2022-08-27T08:18:54;13.63;;;8.38;;
20393;SDS011;10356;50.544;9.642;2022-08-27T08:21:21;11.23;;;8.02;;
20393;SDS011;10356;50.544;9.642;2022-08-27T08:23:47;12.07;;;8.40;;
20393;SDS011;10356;50.544;9.642;2022-08-27T08:26:14;8.68;;;7.40;;
20393;SDS011;10356;50.544;9.642;2022-08-27T08:28:41;12.15;;;8.45;;
20393;SDS011;10356;50.544;9.642;2022-08-27T08:31:09;12.07;;;7.30;;
20393;SDS011;10356;50.544;9.642;2022-08-27T08:33:36;13.85;;;7.78;;
20393;SDS011;10356;50.544;9.642;2022-08-27T08:36:07;11.88;;;8.07;;
20393;SDS011;10356;50.544;9.642;2022-08-27T08:38:35;12.60;;;8.18;;
20393;SDS011;10356;50.544;9.642;2022-08-27T08:41:02;12.55;;;8.13;;
20393;SDS011;10356;50.544;9.642;2022-08-27T08:43:30;10.80;;;7.63;;
20393;SDS011;10356;50.544;9.642;2022-08-27T08:46:01;12.63;;;8.07;;
20393;SDS011;10356;50.544;9.642;2022-08-27T08:48:33;9.57;;;7.95;;
20393;SDS011;10356;50.544;9.642;2022-08-27T08:51:04;12.68;;;8.13;;
20393;SDS011;10356;50.544;9.642;2022-08-27T08:53:40;9.70;;;8.05;;
20393;SDS011;10356;50.544;9.642;2022-08-27T08:56:16;10.93;;;7.18;;
20393;SDS011;10356;50.544;9.642;2022-08-27T08:58:48;10.10;;;8.10;;
20393;SDS011;10356;50.544;9.642;2022-08-27T09:01:18;12.30;;;7.72;;
20393;SDS011;10356;50.544;9.642;2022-08-27T09:03:48;11.75;;;8.55;;
20393;SDS011;10356;50.544;9.642;2022-08-27T09:06:23;12.18;;;8.05;;
20393;SDS011;10356;50.544;9.642;2022-08-27T09:08:57;11.40;;;8.50;;
20393;SDS011;10356;50.544;9.642;2022-08-27T09:11:31;11.63;;;8.52;;
20393;SDS011;10356;50.544;9.642;2022-08-27T09:14:04;10.82;;;7.78;;
20393;SDS011;10356;50.544;9.642;2022-08-27T09:16:41;12.30;;;7.45;;
20393;SDS011;10356;50.544;9.642;2022-08-27T09:19:08;10.90;;;7.38;;
20393;SDS011;10356;50.544;9.642;2022-08-27T09:21:42;9.63;;;7.07;;
20393;SDS011;10356;50.544;9.642;2022-08-27T09:24:16;14.48;;;7.22;;
20393;SDS011;10356;50.544;9.642;2022-08-27T09:26:51;11.75;;;7.55;;
20393;SDS011;10356;50.544;9.642;2022-08-27T09:29:18;8.63;;;6.30;;
20393;SDS011;10356;50.544;9.642;2022-08-27T09:31:46;10.25;;;7.00;;
20393;SDS011;10356;50.544;9.642;2022-08-27T09:34:17;12.57;;;7.20;;
20393;SDS011;10356;50.544;9.642;2022-08-27T09:36:50;8.85;;;7.13;;
20393;SDS011;10356;50.544;9.642;2022-08-27T09:39:24;11.77;;;7.18;;
20393;SDS011;10356;50.544;9.642;2022-08-27T09:41:54;9.18;;;7.50;;
20393;SDS011;10356;50.544;9.642;2022-08-27T09:44:21;8.25;;;7.38;;
20393;SDS011;10356;50.544;9.642;2022-08-27T09:46:54;8.82;;;7.53;;
20393;SDS011;10356;50.544;9.642;2022-08-27T09:49:23;10.60;;;7.47;;
20393;SDS011;10356;50.544;9.642;2022-08-27T09:51:52;11.65;;;7.75;;
20393;SDS011;10356;50.544;9.642;2022-08-27T09:54:25;9.10;;;7.00;;
20393;SDS011;10356;50.544;9.642;2022-08-27T09:56:57;8.38;;;7.07;;
20393;SDS011;10356;50.544;9.642;2022-08-27T09:59:25;9.85;;;7.20;;
20393;SDS011;10356;50.544;9.642;2022-08-27T10:01:56;9.77;;;6.75;;
20393;SDS011;10356;50.544;9.642;2022-08-27T10:04:33;8.98;;;6.88;;
20393;SDS011;10356;50.544;9.642;2022-08-27T10:07:13;7.18;;;6.32;;
20393;SDS011;10356;50.544;9.642;2022-08-27T10:09:50;9.27;;;7.78;;
20393;SDS011;10356;50.544;9.642;2022-08-27T10:12:23;8.15;;;6.68;;
20393;SDS011;10356;50.544;9.642;2022-08-27T10:14:55;11.63;;;7.53;;
20393;SDS011;10356;50.544;9.642;2022-08-27T10:17:25;7.32;;;6.60;;
20393;SDS011;10356;50.544;9.642;2022-08-27T10:20:00;8.43;;;6.80;;
20393;SDS011;10356;50.544;9.642;2022-08-27T10:22:37;8.07;;;6.63;;
20393;SDS011;10356;50.544;9.642;2022-08-27T10:25:18;8.52;;;6.95;;
20393;SDS011;10356;50.544;9.642;2022-08-27T10:27:53;13.43;;;10.00;;
20393;SDS011;10356;50.544;9.642;2022-08-27T10:30:31;8.60;;;7.10;;
20393;SDS011;10356;50.544;9.642;2022-08-27T10:33:12;8.90;;;6.80;;
20393;SDS011;10356;50.544;9.642;2022-08-27T10:35:48;9.00;;;6.80;;
20393;SDS011;10356;50.544;9.642;2022-08-27T10:38:23;8.90;;;7.78;;
20393;SDS011;10356;50.544;9.642;2022-08-27T10:41:00;9.75;;;7.50;;
20393;SDS011;10356;50.544;9.642;2022-08-27T10:46:54;9.93;;;6.85;;
20393;SDS011;10356;50.544;9.642;2022-08-27T10:49:33;8.85;;;6.95;;
20393;SDS011;10356;50.544;9.642;2022-08-27T10:52:10;9.82;;;7.35;;
20393;SDS011;10356;50.544;9.642;2022-08-27T10:54:45;10.30;;;8.07;;
20393;SDS011;10356;50.544;9.642;2022-08-27T10:57:20;11.43;;;7.95;;
20393;SDS011;10356;50.544;9.642;2022-08-27T10:59:53;10.75;;;7.22;;
20393;SDS011;10356;50.544;9.642;2022-08-27T11:02:27;9.52;;;8.18;;
20393;SDS011;10356;50.544;9.642;2022-08-27T11:05:01;11.95;;;7.90;;
20393;SDS011;10356;50.544;9.642;2022-08-27T11:07:31;10.27;;;8.57;;
20393;SDS011;10356;50.544;9.642;2022-08-27T11:10:05;10.90;;;7.63;;
20393;SDS011;10356;50.544;9.642;2022-08-27T11:12:35;9.82;;;7.50;;
20393;SDS011;10356;50.544;9.642;2022-08-27T11:15:07;9.10;;;7.80;;
20393;SDS011;10356;50.544;9.642;2022-08-27T11:17:37;8.40;;;7.50;;
20393;SDS011;10356;50.544;9.642;2022-08-27T11:20:09;9.32;;;7.38;;
20393;SDS011;10356;50.544;9.642;2022-08-27T11:22:40;8.18;;;7.38;;
20393;SDS011;10356;50.544;9.642;2022-08-27T11:25:27;9.10;;;7.70;;
20393;SDS011;10356;50.544;9.642;2022-08-27T11:28:03;8.00;;;7.20;;
20393;SDS011;10356;50.544;9.642;2022-08-27T11:30:34;8.98;;;6.90;;
20393;SDS011;10356;50.544;9.642;2022-08-27T11:33:13;8.00;;;7.15;;
20393;SDS011;10356;50.544;9.642;2022-08-27T11:35:48;8.98;;;7.65;;
20393;SDS011;10356;50.544;9.642;2022-08-27T11:38:35;8.68;;;6.78;;
20393;SDS011;10356;50.544;9.642;2022-08-27T11:41:14;12.95;;;8.45;;
20393;SDS011;10356;50.544;9.642;2022-08-27T11:43:58;8.38;;;7.57;;
20393;SDS011;10356;50.544;9.642;2022-08-27T11:46:26;8.50;;;7.60;;
20393;SDS011;10356;50.544;9.642;2022-08-27T11:49:03;9.25;;;7.10;;
20393;SDS011;10356;50.544;9.642;2022-08-27T11:51:31;11.32;;;7.90;;
20393;SDS011;10356;50.544;9.642;2022-08-27T11:54:00;8.82;;;7.53;;
20393;SDS011;10356;50.544;9.642;2022-08-27T11:56:34;9.38;;;7.45;;
20393;SDS011;10356;50.544;9.642;2022-08-27T11:59:09;9.90;;;7.93;;
20393;SDS011;10356;50.544;9.642;2022-08-27T12:01:44;10.70;;;8.40;;
20393;SDS011;10356;50.544;9.642;2022-08-27T12:04:19;9.82;;;7.80;;
20393;SDS011;10356;50.544;9.642;2022-08-27T12:06:49;9.07;;;7.53;;
20393;SDS011;10356;50.544;9.642;2022-08-27T12:09:18;9.50;;;7.68;;
20393;SDS011;10356;50.544;9.642;2022-08-27T12:11:50;9.38;;;7.63;;
20393;SDS011;10356;50.544;9.642;2022-08-27T12:14:31;10.32;;;8.30;;
20393;SDS011;10356;50.544;9.642;2022-08-27T12:17:09;11.27;;;8.85;;
20393;SDS011;10356;50.544;9.642;2022-08-27T12:19:44;9.95;;;8.27;;
20393;SDS011;10356;50.544;9.642;2022-08-27T12:22:22;12.45;;;8.80;;
20393;SDS011;10356;50.544;9.642;2022-08-27T12:25:24;10.48;;;8.23;;
20393;SDS011;10356;50.544;9.642;2022-08-27T12:27:56;14.98;;;8.88;;
20393;SDS011;10356;50.544;9.642;2022-08-27T12:30:28;10.38;;;8.68;;
20393;SDS011;10356;50.544;9.642;2022-08-27T12:32:57;12.57;;;7.78;;
20393;SDS011;10356;50.544;9.642;2022-08-27T12:35:30;9.48;;;8.32;;
20393;SDS011;10356;50.544;9.642;2022-08-27T12:38:09;12.27;;;8.38;;
20393;SDS011;10356;50.544;9.642;2022-08-27T12:40:40;9.63;;;8.02;;
20393;SDS011;10356;50.544;9.642;2022-08-27T12:43:13;11.52;;;8.55;;
20393;SDS011;10356;50.544;9.642;2022-08-27T12:45:44;11.65;;;8.43;;
20393;SDS011;10356;50.544;9.642;2022-08-27T12:48:15;12.05;;;8.57;;
20393;SDS011;10356;50.544;9.642;2022-08-27T12:50:49;13.10;;;8.75;;
20393;SDS011;10356;50.544;9.642;2022-08-27T12:53:20;16.60;;;10.35;;
20393;SDS011;10356;50.544;9.642;2022-08-27T12:56:02;12.40;;;8.90;;
20393;SDS011;10356;50.544;9.642;2022-08-27T12:58:49;12.13;;;8.25;;
20393;SDS011;10356;50.544;9.642;2022-08-27T13:01:26;10.98;;;7.57;;
20393;SDS011;10356;50.544;9.642;2022-08-27T13:04:00;9.82;;;7.18;;
20393;SDS011;10356;50.544;9.642;2022-08-27T13:06:28;9.45;;;7.68;;
20393;SDS011;10356;50.544;9.642;2022-08-27T13:08:58;8.40;;;7.38;;
20393;SDS011;10356;50.544;9.642;2022-08-27T13:11:26;10.85;;;7.88;;
20393;SDS011;10356;50.544;9.642;2022-08-27T13:14:04;11.35;;;7.47;;
20393;SDS011;10356;50.544;9.642;2022-08-27T13:16:34;10.10;;;8.35;;
20393;SDS011;10356;50.544;9.642;2022-08-27T13:19:03;11.73;;;8.35;;
20393;SDS011;10356;50.544;9.642;2022-08-27T13:21:30;8.95;;;8.00;;
20393;SDS011;10356;50.544;9.642;2022-08-27T13:23:58;10.65;;;7.60;;
20393;SDS011;10356;50.544;9.642;2022-08-27T13:26:27;10.50;;;8.02;;
20393;SDS011;10356;50.544;9.642;2022-08-27T13:28:55;10.63;;;7.75;;
20393;SDS011;10356;50.544;9.642;2022-08-27T13:31:24;10.85;;;7.38;;
20393;SDS011;10356;50.544;9.642;2022-08-27T13:33:53;10.25;;;7.40;;
20393;SDS011;10356;50.544;9.642;2022-08-27T13:36:26;11.75;;;7.15;;
20393;SDS011;10356;50.544;9.642;2022-08-27T13:38:54;9.55;;;7.63;;
20393;SDS011;10356;50.544;9.642;2022-08-27T13:41:24;9.23;;;7.28;;
20393;SDS011;10356;50.544;9.642;2022-08-27T13:43:54;11.68;;;7.28;;
20393;SDS011;10356;50.544;9.642;2022-08-27T13:46:23;10.75;;;7.90;;
20393;SDS011;10356;50.544;9.642;2022-08-27T13:48:55;12.00;;;7.40;;
20393;SDS011;10356;50.544;9.642;2022-08-27T13:51:24;9.35;;;7.75;;
20393;SDS011;10356;50.544;9.642;2022-08-27T13:53:54;10.75;;;7.75;;
20393;SDS011;10356;50.544;9.642;2022-08-27T13:56:42;9.98;;;8.07;;
20393;SDS011;10356;50.544;9.642;2022-08-27T13:59:23;11.55;;;7.55;;
20393;SDS011;10356;50.544;9.642;2022-08-27T14:01:56;12.50;;;7.15;;
20393;SDS011;10356;50.544;9.642;2022-08-27T14:04:26;14.57;;;7.85;;
20393;SDS011;10356;50.544;9.642;2022-08-27T14:07:05;15.15;;;7.75;;
20393;SDS011;10356;50.544;9.642;2022-08-27T14:09:33;8.98;;;7.68;;
20393;SDS011;10356;50.544;9.642;2022-08-27T14:12:07;9.75;;;6.95;;
20393;SDS011;10356;50.544;9.642;2022-08-27T14:14:36;14.43;;;7.60;;
20393;SDS011;10356;50.544;9.642;2022-08-27T14:17:18;11.90;;;7.85;;
20393;SDS011;10356;50.544;9.642;2022-08-27T14:19:47;12.30;;;7.43;;
20393;SDS011;10356;50.544;9.642;2022-08-27T14:22:13;8.45;;;7.18;;
20393;SDS011;10356;50.544;9.642;2022-08-27T14:24:40;13.43;;;7.57;;
20393;SDS011;10356;50.544;9.642;2022-08-27T14:27:08;9.00;;;7.80;;
20393;SDS011;10356;50.544;9.642;2022-08-27T14:29:38;11.13;;;8.13;;
20393;SDS011;10356;50.544;9.642;2022-08-27T14:32:06;9.10;;;7.03;;
20393;SDS011;10356;50.544;9.642;2022-08-27T14:34:32;13.65;;;8.10;;
20393;SDS011;10356;50.544;9.642;2022-08-27T14:36:59;9.75;;;8.48;;
20393;SDS011;10356;50.544;9.642;2022-08-27T14:39:26;10.45;;;7.70;;
20393;SDS011;10356;50.544;9.642;2022-08-27T14:41:52;12.95;;;7.85;;
20393;SDS011;10356;50.544;9.642;2022-08-27T14:44:19;11.98;;;8.15;;
20393;SDS011;10356;50.544;9.642;2022-08-27T14:46:45;11.77;;;8.35;;
20393;SDS011;10356;50.544;9.642;2022-08-27T14:49:15;10.52;;;7.90;;